sensor_id;sensor_type;location;lat;lon;timestamp;P1;durP1;ratioP1;P2;durP2;ratioP2
37355;SDS011;48747;50.250;18.848;2023-04-24T00:02:00;13.00;;;9.63;;
37355;SDS011;48747;50.250;18.848;2023-04-24T00:04:12;15.85;;;9.50;;
37355;SDS011;48747;50.250;18.848;2023-04-24T00:06:15;17.73;;;10.32;;
37355;SDS011;48747;50.250;18.848;2023-04-24T00:08:20;14.23;;;9.93;;
37355;SDS011;48747;50.250;18.848;2023-04-24T00:10:30;14.43;;;9.58;;
37355;SDS011;48747;50.250;18.848;2023-04-24T00:12:29;17.10;;;10.88;;
37355;SDS011;48747;50.250;18.848;2023-04-24T00:14:33;15.72;;;10.13;;
37355;SDS011;48747;50.250;18.848;2023-04-24T00:16:40;18.17;;;10.38;;
37355;SDS011;48747;50.250;18.848;2023-04-24T00:18:45;15.88;;;10.65;;
37355;SDS011;48747;50.250;18.848;2023-04-24T00:20:50;15.72;;;10.35;;
37355;SDS011;48747;50.250;18.848;2023-04-24T00:22:53;14.93;;;9.50;;
37355;SDS011;48747;50.250;18.848;2023-04-24T00:24:58;14.90;;;9.50;;
37355;SDS011;48747;50.250;18.848;2023-04-24T00:27:04;13.93;;;9.38;;
37355;SDS011;48747;50.250;18.848;2023-04-24T00:29:07;13.93;;;9.70;;
37355;SDS011;48747;50.250;18.848;2023-04-24T00:31:22;14.68;;;9.80;;
37355;SDS011;48747;50.250;18.848;2023-04-24T00:33:19;13.68;;;9.13;;
37355;SDS011;48747;50.250;18.848;2023-04-24T00:35:27;15.38;;;9.80;;
37355;SDS011;48747;50.250;18.848;2023-04-24T00:37:26;13.28;;;9.08;;
37355;SDS011;48747;50.250;18.848;2023-04-24T00:39:31;13.72;;;9.43;;
37355;SDS011;48747;50.250;18.848;2023-04-24T00:41:34;14.03;;;9.80;;
37355;SDS011;48747;50.250;18.848;2023-04-24T00:43:38;14.23;;;10.93;;
37355;SDS011;48747;50.250;18.848;2023-04-24T00:45:41;19.75;;;12.15;;
37355;SDS011;48747;50.250;18.848;2023-04-24T00:47:49;16.52;;;11.95;;
37355;SDS011;48747;50.250;18.848;2023-04-24T00:50:00;16.10;;;12.33;;
37355;SDS011;48747;50.250;18.848;2023-04-24T00:51:59;17.45;;;11.83;;
37355;SDS011;48747;50.250;18.848;2023-04-24T00:54:04;18.25;;;12.07;;
37355;SDS011;48747;50.250;18.848;2023-04-24T00:56:07;16.57;;;11.30;;
37355;SDS011;48747;50.250;18.848;2023-04-24T00:58:12;15.88;;;11.18;;
37355;SDS011;48747;50.250;18.848;2023-04-24T01:00:16;15.23;;;11.10;;
37355;SDS011;48747;50.250;18.848;2023-04-24T01:02:20;18.27;;;11.12;;
37355;SDS011;48747;50.250;18.848;2023-04-24T01:04:24;18.92;;;11.05;;
37355;SDS011;48747;50.250;18.848;2023-04-24T01:06:29;16.80;;;11.55;;
37355;SDS011;48747;50.250;18.848;2023-04-24T01:08:34;16.02;;;10.85;;
37355;SDS011;48747;50.250;18.848;2023-04-24T01:10:39;16.10;;;11.00;;
37355;SDS011;48747;50.250;18.848;2023-04-24T01:12:43;18.52;;;11.48;;
37355;SDS011;48747;50.250;18.848;2023-04-24T01:14:48;18.62;;;12.28;;
37355;SDS011;48747;50.250;18.848;2023-04-24T01:16:53;16.85;;;11.65;;
37355;SDS011;48747;50.250;18.848;2023-04-24T01:18:58;18.02;;;13.22;;
37355;SDS011;48747;50.250;18.848;2023-04-24T01:21:02;21.40;;;12.68;;
37355;SDS011;48747;50.250;18.848;2023-04-24T01:23:08;18.42;;;12.25;;
37355;SDS011;48747;50.250;18.848;2023-04-24T01:25:12;16.48;;;11.22;;
37355;SDS011;48747;50.250;18.848;2023-04-24T01:27:15;14.75;;;12.03;;
37355;SDS011;48747;50.250;18.848;2023-04-24T01:29:20;15.75;;;11.20;;
37355;SDS011;48747;50.250;18.848;2023-04-24T01:31:30;19.12;;;12.53;;
37355;SDS011;48747;50.250;18.848;2023-04-24T01:33:30;17.23;;;11.05;;
37355;SDS011;48747;50.250;18.848;2023-04-24T01:35:38;15.08;;;11.28;;
37355;SDS011;48747;50.250;18.848;2023-04-24T01:37:43;17.73;;;11.50;;
37355;SDS011;48747;50.250;18.848;2023-04-24T01:39:49;17.65;;;11.45;;
37355;SDS011;48747;50.250;18.848;2023-04-24T01:41:56;14.75;;;11.20;;
37355;SDS011;48747;50.250;18.848;2023-04-24T01:43:58;15.93;;;11.55;;
37355;SDS011;48747;50.250;18.848;2023-04-24T01:46:03;17.35;;;11.15;;
37355;SDS011;48747;50.250;18.848;2023-04-24T01:48:06;15.50;;;10.93;;
37355;SDS011;48747;50.250;18.848;2023-04-24T01:50:09;16.85;;;11.38;;
37355;SDS011;48747;50.250;18.848;2023-04-24T01:52:13;15.88;;;11.65;;
37355;SDS011;48747;50.250;18.848;2023-04-24T01:54:16;16.32;;;11.25;;
37355;SDS011;48747;50.250;18.848;2023-04-24T01:56:22;14.80;;;11.00;;
37355;SDS011;48747;50.250;18.848;2023-04-24T01:58:26;15.13;;;11.43;;
37355;SDS011;48747;50.250;18.848;2023-04-24T02:00:29;15.40;;;11.40;;
37355;SDS011;48747;50.250;18.848;2023-04-24T02:02:33;16.55;;;11.65;;
37355;SDS011;48747;50.250;18.848;2023-04-24T02:04:39;15.70;;;10.90;;
37355;SDS011;48747;50.250;18.848;2023-04-24T02:06:44;14.87;;;11.10;;
37355;SDS011;48747;50.250;18.848;2023-04-24T02:08:47;15.55;;;10.60;;
37355;SDS011;48747;50.250;18.848;2023-04-24T02:13:10;15.80;;;11.83;;
37355;SDS011;48747;50.250;18.848;2023-04-24T02:15:13;14.03;;;11.18;;
37355;SDS011;48747;50.250;18.848;2023-04-24T02:17:18;17.32;;;10.45;;
37355;SDS011;48747;50.250;18.848;2023-04-24T02:19:25;11.97;;;9.90;;
37355;SDS011;48747;50.250;18.848;2023-04-24T02:21:28;16.17;;;11.55;;
37355;SDS011;48747;50.250;18.848;2023-04-24T02:23:33;14.43;;;10.82;;
37355;SDS011;48747;50.250;18.848;2023-04-24T02:25:42;14.83;;;10.82;;
37355;SDS011;48747;50.250;18.848;2023-04-24T02:27:41;14.93;;;10.23;;
37355;SDS011;48747;50.250;18.848;2023-04-24T02:29:46;15.93;;;10.68;;
37355;SDS011;48747;50.250;18.848;2023-04-24T02:31:52;18.37;;;10.08;;
37355;SDS011;48747;50.250;18.848;2023-04-24T02:34:01;14.35;;;10.28;;
37355;SDS011;48747;50.250;18.848;2023-04-24T02:36:03;13.70;;;11.70;;
37355;SDS011;48747;50.250;18.848;2023-04-24T02:38:09;12.13;;;10.65;;
37355;SDS011;48747;50.250;18.848;2023-04-24T02:40:12;15.63;;;11.65;;
37355;SDS011;48747;50.250;18.848;2023-04-24T02:42:15;11.85;;;9.15;;
37355;SDS011;48747;50.250;18.848;2023-04-24T02:44:20;16.37;;;9.78;;
37355;SDS011;48747;50.250;18.848;2023-04-24T02:46:24;11.20;;;9.93;;
37355;SDS011;48747;50.250;18.848;2023-04-24T02:48:28;12.05;;;9.30;;
37355;SDS011;48747;50.250;18.848;2023-04-24T02:50:32;17.25;;;15.53;;
37355;SDS011;48747;50.250;18.848;2023-04-24T02:52:36;16.80;;;15.15;;
37355;SDS011;48747;50.250;18.848;2023-04-24T02:54:42;15.53;;;13.93;;
37355;SDS011;48747;50.250;18.848;2023-04-24T02:56:46;14.58;;;13.03;;
37355;SDS011;48747;50.250;18.848;2023-04-24T02:58:49;16.52;;;14.25;;
37355;SDS011;48747;50.250;18.848;2023-04-24T03:01:00;15.88;;;14.28;;
37355;SDS011;48747;50.250;18.848;2023-04-24T03:03:04;15.85;;;13.80;;
37355;SDS011;48747;50.250;18.848;2023-04-24T03:05:09;18.92;;;13.00;;
37355;SDS011;48747;50.250;18.848;2023-04-24T03:07:18;16.30;;;13.22;;
37355;SDS011;48747;50.250;18.848;2023-04-24T03:09:19;14.53;;;11.50;;
37355;SDS011;48747;50.250;18.848;2023-04-24T03:11:23;15.95;;;10.95;;
37355;SDS011;48747;50.250;18.848;2023-04-24T03:13:27;15.60;;;12.00;;
37355;SDS011;48747;50.250;18.848;2023-04-24T03:15:33;15.35;;;11.55;;
37355;SDS011;48747;50.250;18.848;2023-04-24T03:17:38;11.50;;;10.18;;
37355;SDS011;48747;50.250;18.848;2023-04-24T03:19:41;13.40;;;8.63;;
37355;SDS011;48747;50.250;18.848;2023-04-24T03:21:46;12.78;;;11.40;;
37355;SDS011;48747;50.250;18.848;2023-04-24T03:23:49;13.70;;;10.45;;
37355;SDS011;48747;50.250;18.848;2023-04-24T03:25:56;16.27;;;11.43;;
37355;SDS011;48747;50.250;18.848;2023-04-24T03:27:58;25.00;;;22.70;;
37355;SDS011;48747;50.250;18.848;2023-04-24T03:30:01;25.35;;;23.20;;
37355;SDS011;48747;50.250;18.848;2023-04-24T03:32:05;28.57;;;26.25;;
37355;SDS011;48747;50.250;18.848;2023-04-24T03:34:18;31.12;;;28.47;;
37355;SDS011;48747;50.250;18.848;2023-04-24T03:36:17;27.55;;;25.25;;
37355;SDS011;48747;50.250;18.848;2023-04-24T03:38:20;20.10;;;18.25;;
37355;SDS011;48747;50.250;18.848;2023-04-24T03:40:23;29.12;;;27.10;;
37355;SDS011;48747;50.250;18.848;2023-04-24T03:42:29;30.23;;;27.93;;
37355;SDS011;48747;50.250;18.848;2023-04-24T03:44:31;30.50;;;28.30;;
37355;SDS011;48747;50.250;18.848;2023-04-24T03:46:46;11.95;;;9.95;;
37355;SDS011;48747;50.250;18.848;2023-04-24T03:48:41;12.10;;;10.58;;
37355;SDS011;48747;50.250;18.848;2023-04-24T03:50:45;21.17;;;19.30;;
37355;SDS011;48747;50.250;18.848;2023-04-24T03:52:48;33.02;;;30.65;;
37355;SDS011;48747;50.250;18.848;2023-04-24T03:54:53;35.55;;;33.10;;
37355;SDS011;48747;50.250;18.848;2023-04-24T03:56:56;33.88;;;31.42;;
37355;SDS011;48747;50.250;18.848;2023-04-24T03:59:01;27.98;;;25.45;;
37355;SDS011;48747;50.250;18.848;2023-04-24T04:01:04;27.35;;;25.35;;
37355;SDS011;48747;50.250;18.848;2023-04-24T04:03:09;33.35;;;30.70;;
37355;SDS011;48747;50.250;18.848;2023-04-24T04:05:14;27.22;;;25.20;;
37355;SDS011;48747;50.250;18.848;2023-04-24T04:07:21;21.70;;;19.98;;
37355;SDS011;48747;50.250;18.848;2023-04-24T04:09:26;20.52;;;18.77;;
37355;SDS011;48747;50.250;18.848;2023-04-24T04:11:34;15.55;;;13.95;;
37355;SDS011;48747;50.250;18.848;2023-04-24T04:13:40;18.35;;;16.48;;
37355;SDS011;48747;50.250;18.848;2023-04-24T04:15:44;24.12;;;22.30;;
37355;SDS011;48747;50.250;18.848;2023-04-24T04:17:48;19.30;;;17.80;;
37355;SDS011;48747;50.250;18.848;2023-04-24T04:19:51;21.12;;;19.52;;
37355;SDS011;48747;50.250;18.848;2023-04-24T04:21:56;24.32;;;22.45;;
37355;SDS011;48747;50.250;18.848;2023-04-24T04:23:59;24.52;;;22.58;;
37355;SDS011;48747;50.250;18.848;2023-04-24T04:26:02;28.62;;;26.52;;
37355;SDS011;48747;50.250;18.848;2023-04-24T04:28:09;22.70;;;20.60;;
37355;SDS011;48747;50.250;18.848;2023-04-24T04:30:16;17.75;;;16.23;;
37355;SDS011;48747;50.250;18.848;2023-04-24T04:32:19;14.68;;;13.25;;
37355;SDS011;48747;50.250;18.848;2023-04-24T04:34:24;15.88;;;14.28;;
37355;SDS011;48747;50.250;18.848;2023-04-24T04:36:29;13.65;;;12.40;;
37355;SDS011;48747;50.250;18.848;2023-04-24T04:38:32;11.93;;;10.65;;
37355;SDS011;48747;50.250;18.848;2023-04-24T04:40:40;16.25;;;10.70;;
37355;SDS011;48747;50.250;18.848;2023-04-24T04:42:43;13.75;;;9.68;;
37355;SDS011;48747;50.250;18.848;2023-04-24T04:45:03;12.18;;;10.53;;
37355;SDS011;48747;50.250;18.848;2023-04-24T04:46:55;14.23;;;11.38;;
37355;SDS011;48747;50.250;18.848;2023-04-24T04:49:05;13.38;;;12.25;;
37355;SDS011;48747;50.250;18.848;2023-04-24T04:51:10;18.60;;;17.00;;
37355;SDS011;48747;50.250;18.848;2023-04-24T04:53:13;19.67;;;18.00;;
37355;SDS011;48747;50.250;18.848;2023-04-24T04:55:16;23.47;;;21.55;;
37355;SDS011;48747;50.250;18.848;2023-04-24T04:57:27;26.35;;;23.95;;
37355;SDS011;48747;50.250;18.848;2023-04-24T04:59:31;39.33;;;36.63;;
37355;SDS011;48747;50.250;18.848;2023-04-24T05:01:36;31.57;;;29.45;;
37355;SDS011;48747;50.250;18.848;2023-04-24T05:03:46;59.10;;;55.40;;
37355;SDS011;48747;50.250;18.848;2023-04-24T05:05:46;35.15;;;32.67;;
37355;SDS011;48747;50.250;18.848;2023-04-24T05:07:55;46.30;;;42.95;;
37355;SDS011;48747;50.250;18.848;2023-04-24T05:09:57;38.83;;;36.15;;
37355;SDS011;48747;50.250;18.848;2023-04-24T05:12:03;36.13;;;33.35;;
37355;SDS011;48747;50.250;18.848;2023-04-24T05:14:08;39.63;;;36.77;;
37355;SDS011;48747;50.250;18.848;2023-04-24T05:16:16;52.48;;;49.15;;
37355;SDS011;48747;50.250;18.848;2023-04-24T05:18:18;55.03;;;51.55;;
37355;SDS011;48747;50.250;18.848;2023-04-24T05:20:22;50.45;;;47.30;;
37355;SDS011;48747;50.250;18.848;2023-04-24T05:22:25;63.95;;;59.95;;
37355;SDS011;48747;50.250;18.848;2023-04-24T05:24:33;51.63;;;48.25;;
37355;SDS011;48747;50.250;18.848;2023-04-24T05:26:39;63.45;;;59.53;;
37355;SDS011;48747;50.250;18.848;2023-04-24T05:28:43;69.35;;;65.25;;
37355;SDS011;48747;50.250;18.848;2023-04-24T05:30:47;56.83;;;53.15;;
37355;SDS011;48747;50.250;18.848;2023-04-24T05:32:51;68.40;;;63.90;;
37355;SDS011;48747;50.250;18.848;2023-04-24T05:34:54;64.45;;;60.20;;
37355;SDS011;48747;50.250;18.848;2023-04-24T05:37:00;60.12;;;56.35;;
37355;SDS011;48747;50.250;18.848;2023-04-24T05:39:03;62.35;;;58.30;;
37355;SDS011;48747;50.250;18.848;2023-04-24T05:41:13;63.05;;;59.23;;
37355;SDS011;48747;50.250;18.848;2023-04-24T05:43:14;62.00;;;58.15;;
37355;SDS011;48747;50.250;18.848;2023-04-24T05:45:19;58.45;;;54.90;;
37355;SDS011;48747;50.250;18.848;2023-04-24T05:47:22;54.48;;;51.10;;
37355;SDS011;48747;50.250;18.848;2023-04-24T05:51:35;46.68;;;43.40;;
37355;SDS011;48747;50.250;18.848;2023-04-24T05:53:39;41.98;;;39.03;;
37355;SDS011;48747;50.250;18.848;2023-04-24T05:55:44;47.20;;;44.20;;
37355;SDS011;48747;50.250;18.848;2023-04-24T05:57:49;45.23;;;42.10;;
37355;SDS011;48747;50.250;18.848;2023-04-24T05:59:52;47.23;;;43.75;;
37355;SDS011;48747;50.250;18.848;2023-04-24T06:01:58;41.73;;;38.98;;
37355;SDS011;48747;50.250;18.848;2023-04-24T06:04:02;36.05;;;33.40;;
37355;SDS011;48747;50.250;18.848;2023-04-24T06:06:16;34.10;;;31.82;;
37355;SDS011;48747;50.250;18.848;2023-04-24T06:08:19;29.55;;;27.40;;
37355;SDS011;48747;50.250;18.848;2023-04-24T06:10:26;20.30;;;18.48;;
37355;SDS011;48747;50.250;18.848;2023-04-24T06:12:38;19.48;;;17.92;;
37355;SDS011;48747;50.250;18.848;2023-04-24T06:14:45;22.25;;;20.32;;
37355;SDS011;48747;50.250;18.848;2023-04-24T06:16:54;22.30;;;20.45;;
37355;SDS011;48747;50.250;18.848;2023-04-24T06:18:53;20.95;;;19.07;;
37355;SDS011;48747;50.250;18.848;2023-04-24T06:20:56;22.10;;;18.10;;
37355;SDS011;48747;50.250;18.848;2023-04-24T06:23:01;21.77;;;19.77;;
37355;SDS011;48747;50.250;18.848;2023-04-24T06:25:04;21.57;;;19.67;;
37355;SDS011;48747;50.250;18.848;2023-04-24T06:27:08;22.73;;;20.95;;
37355;SDS011;48747;50.250;18.848;2023-04-24T06:29:18;21.52;;;19.48;;
37355;SDS011;48747;50.250;18.848;2023-04-24T06:31:18;15.30;;;9.55;;
37355;SDS011;48747;50.250;18.848;2023-04-24T06:33:21;8.65;;;6.80;;
37355;SDS011;48747;50.250;18.848;2023-04-24T06:35:24;7.55;;;6.60;;
37355;SDS011;48747;50.250;18.848;2023-04-24T06:37:27;8.90;;;6.65;;
37355;SDS011;48747;50.250;18.848;2023-04-24T06:39:33;10.43;;;7.40;;
37355;SDS011;48747;50.250;18.848;2023-04-24T06:41:36;12.28;;;7.35;;
37355;SDS011;48747;50.250;18.848;2023-04-24T06:43:41;13.22;;;7.85;;
37355;SDS011;48747;50.250;18.848;2023-04-24T06:45:44;10.98;;;7.53;;
37355;SDS011;48747;50.250;18.848;2023-04-24T06:47:48;11.28;;;8.93;;
37355;SDS011;48747;50.250;18.848;2023-04-24T06:49:51;12.00;;;7.95;;
37355;SDS011;48747;50.250;18.848;2023-04-24T06:51:56;12.10;;;9.13;;
37355;SDS011;48747;50.250;18.848;2023-04-24T06:53:59;9.73;;;8.83;;
37355;SDS011;48747;50.250;18.848;2023-04-24T06:56:03;11.30;;;7.92;;
37355;SDS011;48747;50.250;18.848;2023-04-24T06:58:08;13.35;;;9.15;;
37355;SDS011;48747;50.250;18.848;2023-04-24T07:00:17;11.22;;;10.32;;
37355;SDS011;48747;50.250;18.848;2023-04-24T07:02:17;14.10;;;10.15;;
37355;SDS011;48747;50.250;18.848;2023-04-24T07:04:22;17.42;;;16.02;;
37355;SDS011;48747;50.250;18.848;2023-04-24T07:06:27;26.17;;;24.37;;
37355;SDS011;48747;50.250;18.848;2023-04-24T07:08:32;26.42;;;24.25;;
37355;SDS011;48747;50.250;18.848;2023-04-24T07:10:38;26.40;;;24.60;;
37355;SDS011;48747;50.250;18.848;2023-04-24T07:12:44;27.30;;;25.20;;
37355;SDS011;48747;50.250;18.848;2023-04-24T07:14:53;25.72;;;23.92;;
37355;SDS011;48747;50.250;18.848;2023-04-24T07:16:53;27.35;;;25.45;;
37355;SDS011;48747;50.250;18.848;2023-04-24T07:18:56;27.65;;;25.40;;
37355;SDS011;48747;50.250;18.848;2023-04-24T07:20:59;27.58;;;25.60;;
37355;SDS011;48747;50.250;18.848;2023-04-24T07:23:02;26.37;;;24.52;;
37355;SDS011;48747;50.250;18.848;2023-04-24T07:25:05;22.60;;;20.92;;
37355;SDS011;48747;50.250;18.848;2023-04-24T07:27:14;22.13;;;20.52;;
37355;SDS011;48747;50.250;18.848;2023-04-24T07:29:16;22.15;;;20.70;;
37355;SDS011;48747;50.250;18.848;2023-04-24T07:31:19;26.68;;;25.02;;
37355;SDS011;48747;50.250;18.848;2023-04-24T07:33:23;27.15;;;25.37;;
37355;SDS011;48747;50.250;18.848;2023-04-24T07:35:26;25.77;;;24.25;;
37355;SDS011;48747;50.250;18.848;2023-04-24T07:37:31;25.08;;;23.57;;
37355;SDS011;48747;50.250;18.848;2023-04-24T07:39:36;26.97;;;25.27;;
37355;SDS011;48747;50.250;18.848;2023-04-24T07:41:39;26.00;;;24.40;;
37355;SDS011;48747;50.250;18.848;2023-04-24T07:43:44;26.87;;;24.72;;
37355;SDS011;48747;50.250;18.848;2023-04-24T07:45:47;26.93;;;24.95;;
37355;SDS011;48747;50.250;18.848;2023-04-24T07:47:51;25.45;;;23.62;;
37355;SDS011;48747;50.250;18.848;2023-04-24T07:49:55;26.62;;;25.02;;
37355;SDS011;48747;50.250;18.848;2023-04-24T07:51:59;28.15;;;26.25;;
37355;SDS011;48747;50.250;18.848;2023-04-24T07:54:04;26.90;;;25.17;;
37355;SDS011;48747;50.250;18.848;2023-04-24T07:56:09;28.73;;;26.65;;
37355;SDS011;48747;50.250;18.848;2023-04-24T07:58:12;27.82;;;25.80;;
37355;SDS011;48747;50.250;18.848;2023-04-24T08:00:22;28.17;;;26.15;;
37355;SDS011;48747;50.250;18.848;2023-04-24T08:02:21;25.48;;;23.70;;
37355;SDS011;48747;50.250;18.848;2023-04-24T08:04:25;27.82;;;25.92;;
37355;SDS011;48747;50.250;18.848;2023-04-24T08:06:29;28.40;;;26.68;;
37355;SDS011;48747;50.250;18.848;2023-04-24T08:08:35;27.85;;;25.92;;
37355;SDS011;48747;50.250;18.848;2023-04-24T08:10:37;17.32;;;15.53;;
37355;SDS011;48747;50.250;18.848;2023-04-24T08:12:41;18.32;;;16.82;;
37355;SDS011;48747;50.250;18.848;2023-04-24T08:14:44;18.07;;;16.42;;
37355;SDS011;48747;50.250;18.848;2023-04-24T08:16:49;17.75;;;16.55;;
37355;SDS011;48747;50.250;18.848;2023-04-24T08:18:52;13.93;;;12.73;;
37355;SDS011;48747;50.250;18.848;2023-04-24T08:20:56;15.05;;;13.62;;
37355;SDS011;48747;50.250;18.848;2023-04-24T08:23:00;12.98;;;11.85;;
37355;SDS011;48747;50.250;18.848;2023-04-24T08:25:05;14.18;;;12.88;;
37355;SDS011;48747;50.250;18.848;2023-04-24T08:27:09;13.58;;;12.28;;
37355;SDS011;48747;50.250;18.848;2023-04-24T08:29:12;14.10;;;12.75;;
37355;SDS011;48747;50.250;18.848;2023-04-24T08:31:15;13.08;;;11.78;;
37355;SDS011;48747;50.250;18.848;2023-04-24T08:33:21;14.28;;;13.38;;
37355;SDS011;48747;50.250;18.848;2023-04-24T08:35:25;15.05;;;13.75;;
37355;SDS011;48747;50.250;18.848;2023-04-24T08:37:28;14.20;;;12.90;;
37355;SDS011;48747;50.250;18.848;2023-04-24T08:39:32;13.75;;;11.30;;
37355;SDS011;48747;50.250;18.848;2023-04-24T08:41:35;16.27;;;14.58;;
37355;SDS011;48747;50.250;18.848;2023-04-24T08:43:40;14.23;;;12.93;;
37355;SDS011;48747;50.250;18.848;2023-04-24T08:45:46;16.80;;;15.30;;
37355;SDS011;48747;50.250;18.848;2023-04-24T08:47:49;17.07;;;15.38;;
37355;SDS011;48747;50.250;18.848;2023-04-24T08:49:54;19.10;;;17.77;;
37355;SDS011;48747;50.250;18.848;2023-04-24T08:52:00;17.73;;;16.20;;
37355;SDS011;48747;50.250;18.848;2023-04-24T08:54:04;17.98;;;15.88;;
37355;SDS011;48747;50.250;18.848;2023-04-24T08:56:08;17.77;;;16.12;;
37355;SDS011;48747;50.250;18.848;2023-04-24T08:58:15;19.07;;;17.65;;
37355;SDS011;48747;50.250;18.848;2023-04-24T09:00:20;18.40;;;16.60;;
37355;SDS011;48747;50.250;18.848;2023-04-24T09:02:26;19.98;;;18.37;;
37355;SDS011;48747;50.250;18.848;2023-04-24T09:04:28;17.85;;;16.35;;
37355;SDS011;48747;50.250;18.848;2023-04-24T09:06:32;20.27;;;18.57;;
37355;SDS011;48747;50.250;18.848;2023-04-24T09:08:36;18.57;;;17.32;;
37355;SDS011;48747;50.250;18.848;2023-04-24T09:10:41;19.92;;;18.35;;
37355;SDS011;48747;50.250;18.848;2023-04-24T09:12:44;17.37;;;16.07;;
37355;SDS011;48747;50.250;18.848;2023-04-24T09:14:48;19.25;;;17.90;;
37355;SDS011;48747;50.250;18.848;2023-04-24T09:16:52;18.50;;;16.75;;
37355;SDS011;48747;50.250;18.848;2023-04-24T09:18:55;18.42;;;16.93;;
37355;SDS011;48747;50.250;18.848;2023-04-24T09:21:01;18.32;;;16.77;;
37355;SDS011;48747;50.250;18.848;2023-04-24T09:23:05;23.30;;;21.70;;
37355;SDS011;48747;50.250;18.848;2023-04-24T09:25:10;22.30;;;19.85;;
37355;SDS011;48747;50.250;18.848;2023-04-24T09:27:13;20.15;;;18.80;;
37355;SDS011;48747;50.250;18.848;2023-04-24T09:29:18;22.15;;;20.12;;
37355;SDS011;48747;50.250;18.848;2023-04-24T09:31:22;22.07;;;20.62;;
37355;SDS011;48747;50.250;18.848;2023-04-24T09:33:26;22.60;;;20.90;;
37355;SDS011;48747;50.250;18.848;2023-04-24T09:35:29;22.15;;;20.32;;
37355;SDS011;48747;50.250;18.848;2023-04-24T09:37:37;20.43;;;19.00;;
37355;SDS011;48747;50.250;18.848;2023-04-24T09:39:42;17.35;;;16.15;;
37355;SDS011;48747;50.250;18.848;2023-04-24T09:41:46;16.20;;;14.85;;
37355;SDS011;48747;50.250;18.848;2023-04-24T09:43:54;16.37;;;15.08;;
37355;SDS011;48747;50.250;18.848;2023-04-24T09:46:04;15.50;;;14.43;;
37355;SDS011;48747;50.250;18.848;2023-04-24T09:48:10;15.85;;;14.70;;
37355;SDS011;48747;50.250;18.848;2023-04-24T09:50:16;18.52;;;16.82;;
37355;SDS011;48747;50.250;18.848;2023-04-24T09:52:19;18.82;;;17.50;;
37355;SDS011;48747;50.250;18.848;2023-04-24T09:54:23;16.35;;;15.30;;
37355;SDS011;48747;50.250;18.848;2023-04-24T09:56:29;17.27;;;15.93;;
37355;SDS011;48747;50.250;18.848;2023-04-24T09:58:35;18.62;;;16.82;;
37355;SDS011;48747;50.250;18.848;2023-04-24T10:00:39;18.23;;;16.73;;
37355;SDS011;48747;50.250;18.848;2023-04-24T10:02:43;19.95;;;18.42;;
37355;SDS011;48747;50.250;18.848;2023-04-24T10:04:56;19.37;;;17.67;;
37355;SDS011;48747;50.250;18.848;2023-04-24T10:07:00;20.00;;;18.40;;
37355;SDS011;48747;50.250;18.848;2023-04-24T10:09:08;20.68;;;18.75;;
37355;SDS011;48747;50.250;18.848;2023-04-24T10:11:13;15.80;;;14.40;;
37355;SDS011;48747;50.250;18.848;2023-04-24T10:13:21;15.20;;;13.80;;
37355;SDS011;48747;50.250;18.848;2023-04-24T10:15:25;21.30;;;19.48;;
37355;SDS011;48747;50.250;18.848;2023-04-24T10:19:44;19.30;;;17.80;;
37355;SDS011;48747;50.250;18.848;2023-04-24T10:21:48;17.52;;;16.07;;
37355;SDS011;48747;50.250;18.848;2023-04-24T10:26:05;18.60;;;17.07;;
37355;SDS011;48747;50.250;18.848;2023-04-24T10:28:07;15.63;;;14.20;;
37355;SDS011;48747;50.250;18.848;2023-04-24T10:30:31;17.27;;;15.95;;
37355;SDS011;48747;50.250;18.848;2023-04-24T10:37:00;15.38;;;13.85;;
37355;SDS011;48747;50.250;18.848;2023-04-24T10:38:48;15.40;;;13.95;;
37355;SDS011;48747;50.250;18.848;2023-04-24T10:41:15;15.85;;;14.45;;
37355;SDS011;48747;50.250;18.848;2023-04-24T10:43:14;17.07;;;15.70;;
37355;SDS011;48747;50.250;18.848;2023-04-24T10:45:26;16.60;;;15.30;;
37355;SDS011;48747;50.250;18.848;2023-04-24T10:47:32;16.35;;;15.05;;
37355;SDS011;48747;50.250;18.848;2023-04-24T10:49:44;20.62;;;18.67;;
37355;SDS011;48747;50.250;18.848;2023-04-24T10:51:54;19.23;;;17.73;;
37355;SDS011;48747;50.250;18.848;2023-04-24T10:54:15;20.55;;;19.15;;
37355;SDS011;48747;50.250;18.848;2023-04-24T10:56:08;17.98;;;16.25;;
37355;SDS011;48747;50.250;18.848;2023-04-24T10:58:13;18.92;;;17.45;;
37355;SDS011;48747;50.250;18.848;2023-04-24T11:00:22;18.05;;;16.67;;
37355;SDS011;48747;50.250;18.848;2023-04-24T11:02:35;19.55;;;17.92;;
37355;SDS011;48747;50.250;18.848;2023-04-24T11:04:39;16.65;;;15.03;;
37355;SDS011;48747;50.250;18.848;2023-04-24T11:06:44;17.00;;;15.63;;
37355;SDS011;48747;50.250;18.848;2023-04-24T11:08:49;14.73;;;13.43;;
37355;SDS011;48747;50.250;18.848;2023-04-24T11:10:58;17.32;;;15.70;;
37355;SDS011;48747;50.250;18.848;2023-04-24T11:13:02;20.62;;;19.05;;
37355;SDS011;48747;50.250;18.848;2023-04-24T11:15:10;21.02;;;19.42;;
37355;SDS011;48747;50.250;18.848;2023-04-24T11:17:27;19.60;;;17.67;;
37355;SDS011;48747;50.250;18.848;2023-04-24T11:19:38;17.87;;;16.42;;
37355;SDS011;48747;50.250;18.848;2023-04-24T11:26:36;19.82;;;18.55;;
37355;SDS011;48747;50.250;18.848;2023-04-24T11:28:44;17.98;;;16.82;;
37355;SDS011;48747;50.250;18.848;2023-04-24T11:30:56;21.62;;;19.80;;
37355;SDS011;48747;50.250;18.848;2023-04-24T11:33:01;19.10;;;17.73;;
37355;SDS011;48747;50.250;18.848;2023-04-24T11:35:14;22.87;;;20.77;;
37355;SDS011;48747;50.250;18.848;2023-04-24T11:37:18;25.92;;;23.85;;
37355;SDS011;48747;50.250;18.848;2023-04-24T11:39:23;24.52;;;22.73;;
37355;SDS011;48747;50.250;18.848;2023-04-24T11:41:26;23.92;;;22.22;;
37355;SDS011;48747;50.250;18.848;2023-04-24T11:43:32;24.72;;;22.50;;
37355;SDS011;48747;50.250;18.848;2023-04-24T11:45:39;23.07;;;21.37;;
37355;SDS011;48747;50.250;18.848;2023-04-24T11:47:46;20.25;;;18.85;;
37355;SDS011;48747;50.250;18.848;2023-04-24T11:49:51;22.67;;;20.92;;
37355;SDS011;48747;50.250;18.848;2023-04-24T11:51:55;24.70;;;22.70;;
37355;SDS011;48747;50.250;18.848;2023-04-24T11:54:01;23.90;;;22.00;;
37355;SDS011;48747;50.250;18.848;2023-04-24T11:56:03;20.90;;;19.05;;
37355;SDS011;48747;50.250;18.848;2023-04-24T11:58:10;21.57;;;19.98;;
37355;SDS011;48747;50.250;18.848;2023-04-24T12:02:22;18.62;;;16.82;;
37355;SDS011;48747;50.250;18.848;2023-04-24T12:04:37;16.75;;;15.18;;
37355;SDS011;48747;50.250;18.848;2023-04-24T12:06:34;18.55;;;16.75;;
37355;SDS011;48747;50.250;18.848;2023-04-24T12:08:37;14.25;;;13.05;;
37355;SDS011;48747;50.250;18.848;2023-04-24T12:10:42;13.43;;;12.25;;
37355;SDS011;48747;50.250;18.848;2023-04-24T12:12:45;13.68;;;12.30;;
37355;SDS011;48747;50.250;18.848;2023-04-24T12:14:53;14.25;;;12.68;;
37355;SDS011;48747;50.250;18.848;2023-04-24T12:16:56;17.02;;;12.70;;
37355;SDS011;48747;50.250;18.848;2023-04-24T12:18:59;14.75;;;13.50;;
37355;SDS011;48747;50.250;18.848;2023-04-24T12:21:20;15.18;;;13.55;;
37355;SDS011;48747;50.250;18.848;2023-04-24T12:23:35;13.70;;;12.53;;